createdAt,value
2017-05-01T00:00:08.141Z,5.70
2017-05-01T00:01:08.191Z,5.30
2017-05-01T00:02:08.215Z,5.30
2017-05-01T00:03:08.153Z,5.30
2017-05-01T00:04:08.229Z,5.30
2017-05-01T00:05:08.180Z,5.30
2017-05-01T00:06:08.203Z,5.30
2017-05-01T00:07:08.186Z,5.30
2017-05-01T00:08:08.207Z,5.30
2017-05-01T00:09:08.147Z,5.30
2017-05-01T00:10:08.187Z,5.30
2017-05-01T00:11:08.136Z,7.40
2017-05-01T00:12:08.134Z,7.40
2017-05-01T00:13:08.128Z,7.40
2017-05-01T00:14:08.244Z,7.40
2017-05-01T00:15:08.183Z,7.40
2017-05-01T00:16:08.196Z,7.40
2017-05-01T00:17:08.200Z,7.40
2017-05-01T00:18:08.221Z,7.40
2017-05-01T00:19:08.200Z,7.40
2017-05-01T00:20:08.199Z,7.40
2017-05-01T00:21:08.177Z,6.00
2017-05-01T00:22:08.214Z,6.00
2017-05-01T00:23:08.157Z,6.00
2017-05-01T00:24:08.197Z,6.00
2017-05-01T00:25:08.195Z,6.00
2017-05-01T00:26:08.216Z,6.00
2017-05-01T00:27:08.149Z,6.00
2017-05-01T00:28:08.157Z,6.00
2017-05-01T00:29:08.162Z,6.00
2017-05-01T00:30:08.162Z,6.00
2017-05-01T00:31:08.187Z,7.60
2017-05-01T00:32:08.268Z,7.60
2017-05-01T00:33:08.237Z,7.60
2017-05-01T00:34:08.218Z,7.60
2017-05-01T00:35:08.190Z,7.60
2017-05-01T00:36:08.280Z,7.60
2017-05-01T00:37:08.173Z,7.60
2017-05-01T00:38:08.253Z,7.60
2017-05-01T00:39:08.248Z,7.60
2017-05-01T00:40:08.205Z,7.60
2017-05-01T00:41:08.189Z,10.40
2017-05-01T00:42:08.234Z,10.40
2017-05-01T00:43:08.285Z,10.40
2017-05-01T00:44:08.186Z,10.40
2017-05-01T00:45:08.203Z,10.40
2017-05-01T00:46:08.214Z,10.40
2017-05-01T00:47:08.213Z,10.40
2017-05-01T00:48:08.199Z,10.40
2017-05-01T00:49:08.275Z,10.40
2017-05-01T00:50:08.237Z,10.40
2017-05-01T00:51:08.280Z,9.10
2017-05-01T00:52:08.202Z,9.10
2017-05-01T00:53:08.236Z,9.10
2017-05-01T00:54:08.240Z,9.10
2017-05-01T00:55:08.249Z,9.10
2017-05-01T00:56:08.241Z,9.10
2017-05-01T00:57:08.269Z,9.10
2017-05-01T00:58:08.270Z,9.10
2017-05-01T00:59:08.186Z,9.10
2017-05-01T01:00:08.194Z,9.10
2017-05-01T01:01:08.242Z,8.10
2017-05-01T01:02:08.168Z,8.10
2017-05-01T01:03:08.203Z,8.10
2017-05-01T01:04:08.269Z,8.10
2017-05-01T01:05:08.186Z,8.10
2017-05-01T01:06:08.246Z,8.10
2017-05-01T01:07:08.171Z,8.10
2017-05-01T01:08:08.234Z,8.10
2017-05-01T01:09:08.239Z,8.10
2017-05-01T01:10:08.241Z,8.10
2017-05-01T01:11:08.216Z,7.80
2017-05-01T01:12:08.173Z,7.80
2017-05-01T01:13:08.207Z,7.80
2017-05-01T01:14:08.182Z,7.80
2017-05-01T01:15:08.164Z,7.80
2017-05-01T01:16:08.208Z,7.80
2017-05-01T01:17:08.184Z,7.80
2017-05-01T01:18:08.177Z,7.80
2017-05-01T01:19:08.263Z,7.80
2017-05-01T01:20:08.250Z,7.80
2017-05-01T01:21:08.217Z,7.80
2017-05-01T01:22:08.197Z,9.10
2017-05-01T01:23:08.244Z,9.10
2017-05-01T01:24:08.221Z,9.10
2017-05-01T01:25:08.220Z,9.10
2017-05-01T01:26:08.178Z,9.10
2017-05-01T01:27:08.247Z,9.10
2017-05-01T01:28:08.191Z,9.10
2017-05-01T01:29:08.250Z,9.10
2017-05-01T01:30:08.200Z,9.10
2017-05-01T01:31:08.258Z,9.10
2017-05-01T01:32:08.280Z,8.50
2017-05-01T01:33:08.242Z,8.50
2017-05-01T01:34:08.316Z,8.50
2017-05-01T01:35:08.284Z,8.50
2017-05-01T01:36:08.251Z,8.50
2017-05-01T01:37:08.306Z,8.50
2017-05-01T01:38:08.246Z,8.50
2017-05-01T01:39:08.211Z,8.50
2017-05-01T01:40:08.285Z,8.50
2017-05-01T01:41:08.250Z,8.50
2017-05-01T01:42:08.170Z,9.30
2017-05-01T01:43:08.215Z,9.30
2017-05-01T01:44:08.258Z,9.30
2017-05-01T01:45:08.177Z,9.30
2017-05-01T01:46:08.237Z,9.30
2017-05-01T01:47:08.380Z,9.30
2017-05-01T01:48:08.206Z,9.30
2017-05-01T01:49:08.243Z,9.30
2017-05-01T01:50:08.191Z,9.30
2017-05-01T01:51:08.216Z,9.30
2017-05-01T01:52:08.278Z,8.60
2017-05-01T01:53:08.267Z,8.60
2017-05-01T01:54:08.241Z,8.60
2017-05-01T01:55:08.251Z,8.60
2017-05-01T01:56:08.299Z,8.60
2017-05-01T01:57:08.201Z,8.60
2017-05-01T01:58:08.296Z,8.60
2017-05-01T01:59:08.204Z,8.60
2017-05-01T02:00:08.206Z,8.60
2017-05-01T02:01:08.265Z,8.60
2017-05-01T02:02:08.181Z,10.10
2017-05-01T02:03:08.371Z,10.10
2017-05-01T02:04:08.167Z,10.10
2017-05-01T02:05:08.204Z,10.10
2017-05-01T02:06:08.189Z,10.10
2017-05-01T02:07:08.170Z,10.10
2017-05-01T02:08:08.262Z,10.10
2017-05-01T02:09:08.365Z,10.10
2017-05-01T02:10:08.194Z,10.10
2017-05-01T02:11:08.270Z,10.10
2017-05-01T02:12:08.192Z,11.20
2017-05-01T02:13:08.278Z,11.20
2017-05-01T02:14:08.213Z,11.20
2017-05-01T02:15:08.251Z,11.20
2017-05-01T02:16:08.225Z,11.20
2017-05-01T02:17:08.193Z,11.20
2017-05-01T02:18:08.223Z,11.20
2017-05-01T02:19:08.265Z,11.20
2017-05-01T02:20:08.206Z,11.20
2017-05-01T02:21:08.269Z,11.20
2017-05-01T02:22:08.246Z,11.40
2017-05-01T02:23:08.222Z,11.40
2017-05-01T02:24:08.310Z,11.40
2017-05-01T02:25:08.290Z,11.40
2017-05-01T02:26:08.253Z,11.40
2017-05-01T02:27:08.259Z,11.40
2017-05-01T02:28:08.282Z,11.40
2017-05-01T02:29:08.279Z,11.40
2017-05-01T02:30:08.258Z,11.40
2017-05-01T02:31:08.233Z,11.40
2017-05-01T02:32:08.296Z,11.30
2017-05-01T02:33:08.252Z,11.30
2017-05-01T02:34:08.318Z,11.30
2017-05-01T02:35:08.287Z,11.30
2017-05-01T02:36:08.216Z,11.30
2017-05-01T02:37:08.286Z,11.30
2017-05-01T02:38:08.227Z,11.30
2017-05-01T02:39:08.268Z,11.30
2017-05-01T02:40:08.312Z,11.30
2017-05-01T02:41:08.231Z,11.30
2017-05-01T02:42:08.255Z,9.90
2017-05-01T02:43:08.259Z,9.90
2017-05-01T02:44:08.256Z,9.90
2017-05-01T02:45:08.241Z,9.90
2017-05-01T02:46:08.338Z,9.90
2017-05-01T02:47:08.334Z,9.90
2017-05-01T02:48:08.252Z,9.90
2017-05-01T02:49:08.354Z,9.90
2017-05-01T02:50:08.244Z,9.90
2017-05-01T02:51:08.342Z,9.90
2017-05-01T02:52:08.289Z,13.40
2017-05-01T02:53:08.291Z,13.40
2017-05-01T02:54:08.317Z,13.40
2017-05-01T02:55:08.327Z,13.40
2017-05-01T02:56:08.327Z,13.40
2017-05-01T02:57:08.340Z,13.40
2017-05-01T02:58:08.344Z,13.40
2017-05-01T02:59:08.329Z,13.40
2017-05-01T03:00:08.354Z,13.40
2017-05-01T03:01:08.263Z,13.40
2017-05-01T03:02:08.276Z,12.90
2017-05-01T03:03:08.230Z,12.90
2017-05-01T03:04:08.293Z,12.90
2017-05-01T03:05:08.299Z,12.90
2017-05-01T03:06:08.282Z,12.90
2017-05-01T03:07:08.273Z,12.90
2017-05-01T03:08:08.288Z,12.90
2017-05-01T03:09:08.305Z,12.90
2017-05-01T03:10:08.329Z,12.90
2017-05-01T03:11:08.320Z,12.90
2017-05-01T03:12:08.344Z,14.50
2017-05-01T03:13:08.290Z,14.50
2017-05-01T03:14:08.362Z,14.50
2017-05-01T03:15:08.321Z,14.50
2017-05-01T03:16:08.281Z,14.50
2017-05-01T03:17:08.315Z,14.50
2017-05-01T03:18:08.358Z,14.50
2017-05-01T03:19:08.332Z,14.50
2017-05-01T03:20:08.313Z,14.50
2017-05-01T03:21:08.351Z,14.50
2017-05-01T03:22:08.288Z,15.90
2017-05-01T03:23:08.294Z,15.90
2017-05-01T03:24:08.255Z,15.90
2017-05-01T03:25:08.247Z,15.90
2017-05-01T03:26:08.309Z,15.90
2017-05-01T03:27:08.274Z,15.90
2017-05-01T03:28:08.330Z,15.90
2017-05-01T03:29:08.228Z,15.90
2017-05-01T03:30:08.304Z,15.90
2017-05-01T03:31:08.263Z,15.90
2017-05-01T03:32:08.336Z,17.40
2017-05-01T03:33:08.339Z,17.40
2017-05-01T03:34:08.276Z,17.40
2017-05-01T03:35:08.359Z,17.40
2017-05-01T03:36:08.361Z,17.40
2017-05-01T03:37:08.373Z,17.40
2017-05-01T03:38:08.357Z,17.40
2017-05-01T03:39:08.361Z,17.40
2017-05-01T03:40:08.360Z,17.40
2017-05-01T03:41:08.341Z,17.40
2017-05-01T03:42:08.264Z,15.60
2017-05-01T03:43:08.241Z,15.60
2017-05-01T03:44:08.225Z,15.60
2017-05-01T03:45:08.301Z,15.60
2017-05-01T03:46:08.291Z,15.60
2017-05-01T03:47:08.274Z,15.60
2017-05-01T03:48:08.282Z,15.60
2017-05-01T03:49:08.274Z,15.60
2017-05-01T03:50:08.248Z,15.60
2017-05-01T03:51:08.313Z,15.60
2017-05-01T03:52:08.305Z,15.20
2017-05-01T03:53:08.253Z,15.20
2017-05-01T03:54:08.314Z,15.20
2017-05-01T03:55:08.331Z,15.20
2017-05-01T03:56:08.258Z,15.20
2017-05-01T03:57:08.301Z,15.20
2017-05-01T03:58:08.266Z,15.20
2017-05-01T03:59:08.322Z,15.20
2017-05-01T04:00:08.363Z,15.20
2017-05-01T04:01:08.287Z,15.20
2017-05-01T04:02:08.345Z,17.99
2017-05-01T04:03:08.340Z,17.99
2017-05-01T04:04:08.380Z,17.99
2017-05-01T04:05:08.353Z,17.99
2017-05-01T04:06:08.325Z,17.99
2017-05-01T04:07:08.310Z,17.99
2017-05-01T04:08:08.282Z,17.99
2017-05-01T04:09:08.351Z,17.99
2017-05-01T04:10:08.354Z,17.99
2017-05-01T04:11:08.313Z,17.99
2017-05-01T04:12:08.246Z,16.30
2017-05-01T04:13:08.291Z,16.30
2017-05-01T04:14:08.315Z,16.30
2017-05-01T04:15:08.313Z,16.30
2017-05-01T04:16:08.346Z,16.30
2017-05-01T04:17:08.343Z,16.30
2017-05-01T04:18:08.342Z,16.30
2017-05-01T04:19:08.287Z,16.30
2017-05-01T04:20:08.291Z,16.30
2017-05-01T04:21:08.310Z,16.30
2017-05-01T04:22:08.352Z,16.80
2017-05-01T04:23:08.335Z,16.80
2017-05-01T04:24:08.367Z,16.80
2017-05-01T04:25:08.381Z,16.80
2017-05-01T04:26:08.359Z,16.80
2017-05-01T04:27:08.327Z,16.80
2017-05-01T04:28:08.378Z,16.80
2017-05-01T04:29:08.292Z,16.80
2017-05-01T04:30:08.326Z,16.80
2017-05-01T04:31:08.322Z,16.80
2017-05-01T04:32:08.337Z,18.20
2017-05-01T04:33:08.311Z,18.20
2017-05-01T04:34:08.308Z,18.20
2017-05-01T04:35:08.288Z,18.20
2017-05-01T04:36:08.335Z,18.20
2017-05-01T04:37:08.326Z,18.20
2017-05-01T04:38:08.314Z,18.20
2017-05-01T04:39:08.285Z,18.20
2017-05-01T04:40:08.365Z,18.20
2017-05-01T04:41:08.364Z,18.20
2017-05-01T04:42:08.337Z,16.40
2017-05-01T04:43:08.362Z,16.40
2017-05-01T04:44:08.288Z,16.40
2017-05-01T04:45:08.339Z,16.40
2017-05-01T04:46:08.366Z,16.40
2017-05-01T04:47:08.318Z,16.40
2017-05-01T04:48:08.352Z,16.40
2017-05-01T04:49:08.338Z,16.40
2017-05-01T04:50:08.280Z,16.40
2017-05-01T04:51:08.280Z,16.40
2017-05-01T04:52:08.402Z,20.99
2017-05-01T04:53:08.359Z,20.99
2017-05-01T04:54:08.358Z,20.99
2017-05-01T04:55:08.320Z,20.99
2017-05-01T04:56:08.317Z,20.99
2017-05-01T04:57:08.346Z,20.99
2017-05-01T04:58:08.318Z,20.99
2017-05-01T04:59:08.296Z,20.99
2017-05-01T05:00:08.314Z,20.99
2017-05-01T05:01:08.308Z,20.99
2017-05-01T05:02:08.338Z,17.70
2017-05-01T05:03:08.300Z,17.70
2017-05-01T05:04:08.342Z,17.70
2017-05-01T05:05:08.302Z,17.70
2017-05-01T05:06:08.292Z,17.70
2017-05-01T05:07:08.383Z,17.70
2017-05-01T05:08:08.326Z,17.70
2017-05-01T05:09:08.381Z,17.70
2017-05-01T05:10:08.301Z,17.70
2017-05-01T05:11:08.342Z,17.70
2017-05-01T05:12:08.356Z,19.40
2017-05-01T05:13:08.335Z,19.40
2017-05-01T05:14:08.384Z,19.40
2017-05-01T05:15:08.398Z,19.40
2017-05-01T05:16:08.409Z,19.40
2017-05-01T05:17:08.390Z,19.40
2017-05-01T05:18:08.353Z,19.40
2017-05-01T05:19:08.401Z,19.40
2017-05-01T05:20:08.305Z,19.40
2017-05-01T05:21:08.399Z,19.40
2017-05-01T05:22:08.331Z,15.90
2017-05-01T05:23:08.361Z,15.90
2017-05-01T05:24:08.358Z,15.90
2017-05-01T05:25:08.387Z,15.90
2017-05-01T05:26:08.388Z,15.90
2017-05-01T05:27:08.372Z,15.90
2017-05-01T05:28:08.328Z,15.90
2017-05-01T05:29:08.350Z,15.90
2017-05-01T05:30:08.415Z,15.90
2017-05-01T05:31:08.382Z,15.90
2017-05-01T05:32:08.412Z,18.90
2017-05-01T05:33:08.370Z,18.90
2017-05-01T05:34:08.392Z,18.90
2017-05-01T05:35:08.347Z,18.90
2017-05-01T05:36:08.369Z,18.90
2017-05-01T05:37:08.426Z,18.90
2017-05-01T05:38:08.339Z,18.90
2017-05-01T05:39:08.340Z,18.90
2017-05-01T05:40:08.404Z,18.90
2017-05-01T05:41:08.425Z,18.90
2017-05-01T05:42:08.327Z,17.70
2017-05-01T05:43:08.419Z,17.70
2017-05-01T05:44:08.331Z,17.70
2017-05-01T05:45:08.331Z,17.70
2017-05-01T05:46:08.432Z,17.70
2017-05-01T05:47:08.425Z,17.70
2017-05-01T05:48:08.426Z,17.70
2017-05-01T05:49:08.429Z,17.70
2017-05-01T05:50:08.402Z,17.70
2017-05-01T05:51:08.411Z,17.70
2017-05-01T05:52:08.399Z,18.90
2017-05-01T05:53:08.331Z,18.90
2017-05-01T05:54:08.336Z,18.90
2017-05-01T05:55:08.376Z,18.90
2017-05-01T05:56:08.331Z,18.90
2017-05-01T05:57:08.433Z,18.90
2017-05-01T05:58:08.354Z,18.90
2017-05-01T05:59:08.353Z,18.90
2017-05-01T06:00:08.371Z,18.90
2017-05-01T06:01:08.397Z,18.90
2017-05-01T06:02:08.329Z,23.30
2017-05-01T06:03:08.344Z,23.30
2017-05-01T06:04:08.386Z,23.30
2017-05-01T06:05:08.428Z,23.30
2017-05-01T06:06:08.407Z,23.30
2017-05-01T06:07:08.396Z,23.30
2017-05-01T06:08:08.378Z,23.30
2017-05-01T06:09:08.489Z,23.30
2017-05-01T06:10:08.384Z,23.30
2017-05-01T06:11:08.385Z,23.30
2017-05-01T06:12:08.372Z,23.30
2017-05-01T06:13:08.337Z,17.60
2017-05-01T06:14:08.381Z,17.60
2017-05-01T06:15:08.361Z,17.60
2017-05-01T06:16:08.439Z,17.60
2017-05-01T06:17:08.435Z,17.60
2017-05-01T06:18:08.339Z,17.60
2017-05-01T06:19:08.411Z,17.60
2017-05-01T06:20:08.432Z,17.60
2017-05-01T06:21:08.391Z,17.60
2017-05-01T06:22:08.360Z,17.60
2017-05-01T06:23:08.339Z,16.50
2017-05-01T06:24:08.326Z,16.50
2017-05-01T06:25:08.308Z,16.50
2017-05-01T06:26:08.375Z,16.50
2017-05-01T06:27:08.361Z,16.50
2017-05-01T06:28:08.394Z,16.50
2017-05-01T06:29:08.393Z,16.50
2017-05-01T06:30:08.413Z,16.50
2017-05-01T06:31:08.351Z,16.50
2017-05-01T06:32:08.380Z,16.50
2017-05-01T06:33:08.409Z,18.30
2017-05-01T06:34:08.357Z,18.30
2017-05-01T06:35:08.390Z,18.30
2017-05-01T06:36:08.420Z,18.30
2017-05-01T06:37:08.430Z,18.30
2017-05-01T06:38:08.449Z,18.30
2017-05-01T06:39:08.426Z,18.30
2017-05-01T06:40:08.349Z,18.30
2017-05-01T06:41:08.375Z,18.30
2017-05-01T06:42:08.385Z,18.30
2017-05-01T06:43:08.409Z,19.80
2017-05-01T06:44:08.394Z,19.80
2017-05-01T06:45:08.391Z,19.80
2017-05-01T06:46:08.359Z,19.80
2017-05-01T06:47:08.391Z,19.80
2017-05-01T06:48:08.427Z,19.80
2017-05-01T06:49:08.417Z,19.80
2017-05-01T06:50:08.442Z,19.80
2017-05-01T06:51:08.390Z,19.80
2017-05-01T06:52:08.429Z,19.80
2017-05-01T06:53:08.424Z,20.60
2017-05-01T06:54:08.430Z,20.60
2017-05-01T06:55:08.373Z,20.60
2017-05-01T06:56:08.412Z,20.60
2017-05-01T06:57:08.372Z,20.60
2017-05-01T06:58:08.427Z,20.60
2017-05-01T06:59:08.458Z,20.60
2017-05-01T07:00:08.440Z,20.60
2017-05-01T07:01:08.438Z,20.60
2017-05-01T07:02:08.435Z,20.60
2017-05-01T07:03:08.358Z,19.30
2017-05-01T07:04:08.439Z,19.30
2017-05-01T07:05:08.412Z,19.30
2017-05-01T07:06:08.390Z,19.30
2017-05-01T07:07:08.417Z,19.30
2017-05-01T07:08:08.356Z,19.30
2017-05-01T07:09:08.396Z,19.30
2017-05-01T07:10:08.374Z,19.30
2017-05-01T07:11:08.369Z,19.30
2017-05-01T07:12:08.462Z,19.30
2017-05-01T07:13:08.365Z,16.10
2017-05-01T07:14:08.383Z,16.10
2017-05-01T07:15:08.448Z,16.10
2017-05-01T07:16:08.447Z,16.10
2017-05-01T07:17:08.448Z,16.10
2017-05-01T07:18:08.440Z,16.10
2017-05-01T07:19:08.455Z,16.10
2017-05-01T07:20:08.463Z,16.10
2017-05-01T07:21:08.370Z,16.10
2017-05-01T07:22:08.466Z,16.10
2017-05-01T07:23:08.455Z,16.60
2017-05-01T07:24:08.464Z,16.60
2017-05-01T07:25:08.421Z,16.60
2017-05-01T07:26:08.470Z,16.60
2017-05-01T07:27:08.448Z,16.60
2017-05-01T07:28:08.379Z,16.60
2017-05-01T07:29:08.409Z,16.60
2017-05-01T07:30:08.473Z,16.60
2017-05-01T07:31:08.414Z,16.60
2017-05-01T07:32:08.482Z,16.60
2017-05-01T07:33:08.424Z,15.90
2017-05-01T07:34:08.348Z,15.90
2017-05-01T07:35:08.381Z,15.90
2017-05-01T07:36:08.418Z,15.90
2017-05-01T07:37:08.433Z,15.90
2017-05-01T07:38:08.394Z,15.90
2017-05-01T07:39:08.436Z,15.90
2017-05-01T07:40:08.406Z,15.90
2017-05-01T07:41:08.394Z,15.90
2017-05-01T07:42:08.369Z,15.90
2017-05-01T07:43:08.399Z,20.70
2017-05-01T07:44:08.419Z,20.70
2017-05-01T07:45:08.432Z,20.70
2017-05-01T07:46:08.475Z,20.70
2017-05-01T07:47:08.481Z,20.70
2017-05-01T07:48:08.456Z,20.70
2017-05-01T07:49:08.465Z,20.70
2017-05-01T07:50:08.473Z,20.70
2017-05-01T07:51:08.398Z,20.70
2017-05-01T07:52:08.437Z,20.70
2017-05-01T07:53:08.408Z,19.80
2017-05-01T07:54:08.435Z,19.80
2017-05-01T07:55:08.423Z,19.80
2017-05-01T07:56:08.447Z,19.80
2017-05-01T07:57:08.486Z,19.80
2017-05-01T07:58:08.443Z,19.80
2017-05-01T07:59:08.470Z,19.80
2017-05-01T08:00:08.473Z,19.80
2017-05-01T08:01:08.443Z,19.80
2017-05-01T08:02:08.396Z,19.80
2017-05-01T08:03:08.407Z,17.30
2017-05-01T08:04:08.440Z,17.30
2017-05-01T08:05:08.456Z,17.30
2017-05-01T08:06:08.456Z,17.30
2017-05-01T08:07:08.423Z,17.30
2017-05-01T08:08:08.453Z,17.30
2017-05-01T08:09:08.370Z,17.30
2017-05-01T08:10:08.423Z,17.30
2017-05-01T08:11:08.406Z,17.30
2017-05-01T08:12:08.411Z,17.30
2017-05-01T08:13:08.414Z,18.99
2017-05-01T08:15:08.396Z,18.99
2017-05-01T08:16:08.397Z,18.99
2017-05-01T08:17:08.472Z,18.99
2017-05-01T08:18:08.456Z,18.99
2017-05-01T08:19:08.454Z,18.99
2017-05-01T08:20:08.475Z,18.99
2017-05-01T08:21:08.466Z,18.99
2017-05-01T08:22:08.381Z,18.99
2017-05-01T08:23:08.477Z,19.40
2017-05-01T08:24:08.420Z,19.40
2017-05-01T08:25:08.468Z,19.40
2017-05-01T08:26:08.468Z,19.40
2017-05-01T08:27:08.421Z,19.40
2017-05-01T08:28:08.418Z,19.40
2017-05-01T08:29:08.458Z,19.40
2017-05-01T08:30:08.410Z,19.40
2017-05-01T08:31:08.504Z,19.40
2017-05-01T08:32:08.477Z,19.40
2017-05-01T08:33:08.417Z,16.60
2017-05-01T08:34:08.481Z,16.60
2017-05-01T08:35:08.429Z,16.60
2017-05-01T08:36:08.469Z,16.60
2017-05-01T08:37:08.432Z,16.60
2017-05-01T08:38:08.497Z,16.60
2017-05-01T08:39:08.462Z,16.60
2017-05-01T08:40:08.405Z,16.60
2017-05-01T08:41:08.440Z,16.60
2017-05-01T08:42:08.474Z,16.60
2017-05-01T08:43:08.457Z,16.90
2017-05-01T08:44:08.449Z,16.90
2017-05-01T08:45:08.475Z,16.90
2017-05-01T08:46:08.425Z,16.90
2017-05-01T08:47:08.402Z,16.90
2017-05-01T08:48:08.492Z,16.90
2017-05-01T08:49:08.493Z,16.90
2017-05-01T08:50:08.488Z,16.90
2017-05-01T08:51:08.459Z,16.90
2017-05-01T08:52:08.403Z,16.90
2017-05-01T08:53:08.404Z,17.00
2017-05-01T08:54:08.373Z,17.00
2017-05-01T08:55:08.383Z,17.00
2017-05-01T08:56:08.386Z,17.00
2017-05-01T08:57:08.448Z,17.00
2017-05-01T08:58:08.473Z,17.00
2017-05-01T08:59:08.400Z,17.00
2017-05-01T09:00:08.412Z,17.00
2017-05-01T09:01:08.434Z,17.00
2017-05-01T09:02:08.459Z,17.00
2017-05-01T09:03:08.429Z,17.60
2017-05-01T09:04:08.518Z,17.60
2017-05-01T09:05:08.446Z,17.60
2017-05-01T09:06:08.465Z,17.60
2017-05-01T09:07:08.453Z,17.60
2017-05-01T09:08:08.481Z,17.60
2017-05-01T09:09:08.462Z,17.60
2017-05-01T09:10:08.425Z,17.60
2017-05-01T09:11:08.527Z,17.60
2017-05-01T09:12:08.527Z,17.60
2017-05-01T09:13:08.427Z,16.70
2017-05-01T09:14:08.521Z,16.70
2017-05-01T09:15:08.467Z,16.70
2017-05-01T09:16:08.499Z,16.70
2017-05-01T09:17:08.462Z,16.70
2017-05-01T09:18:08.512Z,16.70
2017-05-01T09:19:08.483Z,16.70
2017-05-01T09:20:08.483Z,16.70
2017-05-01T09:21:08.501Z,16.70
2017-05-01T09:22:08.532Z,16.70
2017-05-01T09:23:08.478Z,16.50
2017-05-01T09:24:08.443Z,16.50
2017-05-01T09:25:08.425Z,16.50
2017-05-01T09:26:08.478Z,16.50
2017-05-01T09:27:08.486Z,16.50
2017-05-01T09:28:08.492Z,16.50
2017-05-01T09:29:08.515Z,16.50
2017-05-01T09:30:08.432Z,16.50
2017-05-01T09:31:08.436Z,16.50
2017-05-01T09:32:08.474Z,16.50
2017-05-01T09:33:08.457Z,19.50
2017-05-01T09:34:08.483Z,19.50
2017-05-01T09:35:08.467Z,19.50
2017-05-01T09:36:08.475Z,19.50
2017-05-01T09:37:08.540Z,19.50
2017-05-01T09:38:08.476Z,19.50
2017-05-01T09:39:08.443Z,19.50
2017-05-01T09:40:08.460Z,19.50
2017-05-01T09:41:08.501Z,19.50
2017-05-01T09:42:08.485Z,19.50
2017-05-01T09:43:08.513Z,16.50
2017-05-01T09:44:08.545Z,16.50
2017-05-01T09:45:08.485Z,16.50
2017-05-01T09:46:08.468Z,16.50
2017-05-01T09:47:08.487Z,16.50
2017-05-01T09:48:08.539Z,16.50
2017-05-01T09:49:08.518Z,16.50
2017-05-01T09:50:08.478Z,16.50
2017-05-01T09:51:08.541Z,16.50
2017-05-01T09:52:08.547Z,16.50
2017-05-01T09:53:08.514Z,18.20
2017-05-01T09:54:08.506Z,18.20
2017-05-01T09:55:08.454Z,18.20
2017-05-01T09:56:08.544Z,18.20
2017-05-01T09:57:08.514Z,18.20
2017-05-01T09:58:08.474Z,18.20
2017-05-01T09:59:08.456Z,18.20
2017-05-01T10:00:08.538Z,18.20
2017-05-01T10:01:08.553Z,18.20
2017-05-01T10:02:08.534Z,18.20
2017-05-01T10:03:08.471Z,16.60
2017-05-01T10:04:08.476Z,16.60
2017-05-01T10:05:08.465Z,16.60
2017-05-01T10:06:08.466Z,16.60
2017-05-01T10:07:08.464Z,16.60
2017-05-01T10:08:08.451Z,16.60
2017-05-01T10:09:08.458Z,16.60
2017-05-01T10:10:08.516Z,16.60
2017-05-01T10:11:08.510Z,16.60
2017-05-01T10:12:08.439Z,16.60
2017-05-01T10:13:08.567Z,14.80
2017-05-01T10:14:08.547Z,14.80
2017-05-01T10:15:08.533Z,14.80
2017-05-01T10:16:08.537Z,14.80
2017-05-01T10:17:08.511Z,14.80
2017-05-01T10:18:08.526Z,14.80
2017-05-01T10:19:08.554Z,14.80
2017-05-01T10:20:08.469Z,14.80
2017-05-01T10:21:08.559Z,14.80
2017-05-01T10:22:08.525Z,14.80
2017-05-01T10:23:08.442Z,16.80
2017-05-01T10:24:08.459Z,16.80
2017-05-01T10:25:08.526Z,16.80
2017-05-01T10:26:08.466Z,16.80
2017-05-01T10:27:08.570Z,16.80
2017-05-01T10:28:08.529Z,16.80
2017-05-01T10:29:08.531Z,16.80
2017-05-01T10:30:08.548Z,16.80
2017-05-01T10:31:08.472Z,16.80
2017-05-01T10:32:08.461Z,16.80
2017-05-01T10:33:08.521Z,15.70
2017-05-01T10:34:08.564Z,15.70
2017-05-01T10:35:08.526Z,15.70
2017-05-01T10:36:08.494Z,15.70
2017-05-01T10:37:08.469Z,15.70
2017-05-01T10:38:08.437Z,15.70
2017-05-01T10:39:08.450Z,15.70
2017-05-01T10:40:08.469Z,15.70
2017-05-01T10:41:08.508Z,15.70
2017-05-01T10:42:08.509Z,15.70
2017-05-01T10:43:08.542Z,14.70
2017-05-01T10:44:08.492Z,14.70
2017-05-01T10:45:08.569Z,14.70
2017-05-01T10:46:08.490Z,14.70
2017-05-01T10:47:08.527Z,14.70
2017-05-01T10:48:08.549Z,14.70
2017-05-01T10:49:08.548Z,14.70
2017-05-01T10:50:08.634Z,14.70
2017-05-01T10:51:08.525Z,14.70
2017-05-01T10:52:08.494Z,14.70
2017-05-01T10:53:08.549Z,15.40
2017-05-01T10:54:08.487Z,15.40
2017-05-01T10:55:08.566Z,15.40
2017-05-01T10:56:08.462Z,15.40
2017-05-01T10:57:08.483Z,15.40
2017-05-01T10:58:08.568Z,15.40
2017-05-01T10:59:08.475Z,15.40
2017-05-01T11:00:08.484Z,15.40
2017-05-01T11:01:08.500Z,15.40
2017-05-01T11:02:08.517Z,15.40
2017-05-01T11:03:08.579Z,16.90
2017-05-01T11:04:08.567Z,16.90
2017-05-01T11:05:08.485Z,16.90
2017-05-01T11:06:08.550Z,16.90
2017-05-01T11:07:08.567Z,16.90
2017-05-01T11:08:08.542Z,16.90
2017-05-01T11:09:08.591Z,16.90
2017-05-01T11:10:08.583Z,16.90
2017-05-01T11:11:08.506Z,16.90
2017-05-01T11:12:08.520Z,16.90
2017-05-01T11:13:08.518Z,15.30
2017-05-01T11:14:08.524Z,15.30
2017-05-01T11:15:08.549Z,15.30
2017-05-01T11:16:08.551Z,15.30
2017-05-01T11:17:08.527Z,15.30
2017-05-01T11:18:08.472Z,15.30
2017-05-01T11:19:08.530Z,15.30
2017-05-01T11:20:08.470Z,15.30
2017-05-01T11:21:08.532Z,15.30
2017-05-01T11:22:08.570Z,15.30
2017-05-01T11:23:08.569Z,14.40
2017-05-01T11:24:08.561Z,14.40
2017-05-01T11:25:08.537Z,14.40
2017-05-01T11:26:08.492Z,14.40
2017-05-01T11:27:08.475Z,14.40
2017-05-01T11:28:08.585Z,14.40
2017-05-01T11:29:08.566Z,14.40
2017-05-01T11:30:08.511Z,14.40
2017-05-01T11:31:08.477Z,14.40
2017-05-01T11:32:08.479Z,14.40
2017-05-01T11:33:08.588Z,14.60
2017-05-01T11:34:08.580Z,14.60
2017-05-01T11:35:08.550Z,14.60
2017-05-01T11:36:08.597Z,14.60
2017-05-01T11:37:08.588Z,14.60
2017-05-01T11:38:08.515Z,14.60
2017-05-01T11:39:08.548Z,14.60
2017-05-01T11:40:08.599Z,14.60
2017-05-01T11:41:08.579Z,14.60
2017-05-01T11:42:08.547Z,14.60
2017-05-01T11:43:08.542Z,14.90
2017-05-01T11:44:08.467Z,14.90
2017-05-01T11:45:08.510Z,14.90
2017-05-01T11:46:08.538Z,14.90
2017-05-01T11:47:08.539Z,14.90
2017-05-01T11:48:08.537Z,14.90
2017-05-01T11:49:08.500Z,14.90
2017-05-01T11:50:08.466Z,14.90
2017-05-01T11:51:08.552Z,14.90
2017-05-01T11:52:08.512Z,14.90
2017-05-01T11:53:08.579Z,14.70
2017-05-01T11:54:08.515Z,14.70
2017-05-01T11:55:08.509Z,14.70
2017-05-01T11:56:08.543Z,14.70
2017-05-01T11:57:08.585Z,14.70
2017-05-01T11:58:08.584Z,14.70
2017-05-01T11:59:08.523Z,14.70
2017-05-01T12:00:08.563Z,14.70
2017-05-01T12:01:08.495Z,14.70
2017-05-01T12:02:08.495Z,14.70
2017-05-01T12:03:08.526Z,13.80
2017-05-01T12:04:08.577Z,13.80
2017-05-01T12:05:08.527Z,13.80
2017-05-01T12:06:08.595Z,13.80
2017-05-01T12:07:08.609Z,13.80
2017-05-01T12:08:08.566Z,13.80
2017-05-01T12:09:08.564Z,13.80
2017-05-01T12:10:08.541Z,13.80
2017-05-01T12:11:08.561Z,13.80
2017-05-01T12:12:08.552Z,13.80
2017-05-01T12:13:08.583Z,14.30
2017-05-01T12:14:08.513Z,14.30
2017-05-01T12:15:08.530Z,14.30
2017-05-01T12:16:08.578Z,14.30
2017-05-01T12:17:08.624Z,14.30
2017-05-01T12:18:08.557Z,14.30
2017-05-01T12:19:08.530Z,14.30
2017-05-01T12:20:08.519Z,14.30
2017-05-01T12:21:08.520Z,14.30
2017-05-01T12:22:08.576Z,14.30
2017-05-01T12:23:08.535Z,13.90
2017-05-01T12:24:08.559Z,13.90
2017-05-01T12:25:08.568Z,13.90
2017-05-01T12:26:08.573Z,13.90
2017-05-01T12:27:08.574Z,13.90
2017-05-01T12:28:08.586Z,13.90
2017-05-01T12:29:08.592Z,13.90
2017-05-01T12:30:08.537Z,13.90
2017-05-01T12:31:08.555Z,13.90
2017-05-01T12:32:08.581Z,13.90
2017-05-01T12:33:08.552Z,13.00
2017-05-01T12:34:08.535Z,13.00
2017-05-01T12:35:08.503Z,13.00
2017-05-01T12:36:08.533Z,13.00
2017-05-01T12:37:08.498Z,13.00
2017-05-01T12:38:08.522Z,13.00
2017-05-01T12:39:08.590Z,13.00
2017-05-01T12:40:08.587Z,13.00
2017-05-01T12:41:08.583Z,13.00
2017-05-01T12:42:08.516Z,13.00
2017-05-01T12:43:08.579Z,16.40
2017-05-01T12:44:08.537Z,16.40
2017-05-01T12:45:08.588Z,16.40
2017-05-01T12:46:08.564Z,16.40
2017-05-01T12:47:08.574Z,16.40
2017-05-01T12:48:08.550Z,16.40
2017-05-01T12:49:08.592Z,16.40
2017-05-01T12:50:08.532Z,16.40
2017-05-01T12:51:08.578Z,16.40
2017-05-01T12:52:08.509Z,16.40
2017-05-01T12:53:08.605Z,16.30
2017-05-01T12:54:08.638Z,16.30
2017-05-01T12:55:08.600Z,16.30
2017-05-01T12:56:08.547Z,16.30
2017-05-01T12:57:08.595Z,16.30